createdAt,value
2019-02-23T00:01:33.042Z,3.84
2019-02-23T00:04:02.169Z,3.84
2019-02-23T00:06:30.537Z,3.90
2019-02-23T00:08:59.133Z,3.80
2019-02-23T00:11:27.440Z,3.76
2019-02-23T00:13:55.460Z,3.64
2019-02-23T00:16:23.464Z,3.65
2019-02-23T00:18:53.631Z,3.65
2019-02-23T00:21:22.252Z,3.65
2019-02-23T00:23:50.854Z,3.53
2019-02-23T00:26:18.792Z,3.42
2019-02-23T00:28:47.574Z,3.55
2019-02-23T00:31:16.476Z,3.47
2019-02-23T00:33:45.151Z,3.39
2019-02-23T00:36:13.440Z,3.33
2019-02-23T00:38:41.409Z,3.35
2019-02-23T00:41:09.322Z,3.22
2019-02-23T00:43:37.226Z,3.25
2019-02-23T00:46:05.211Z,3.24
2019-02-23T00:48:33.665Z,3.23
2019-02-23T00:51:02.355Z,3.37
2019-02-23T00:53:31.018Z,3.31
2019-02-23T00:55:59.069Z,3.30
2019-02-23T00:58:27.280Z,3.32
2019-02-23T01:00:56.520Z,3.37
2019-02-23T01:03:24.869Z,3.38
2019-02-23T01:05:53.129Z,3.56
2019-02-23T01:08:21.931Z,3.59
2019-02-23T01:10:57.838Z,3.60
2019-02-23T01:13:20.661Z,3.71
2019-02-23T01:15:49.217Z,3.65
2019-02-23T01:18:17.607Z,3.69
2019-02-23T01:20:46.096Z,3.74
2019-02-23T01:23:14.310Z,3.72
2019-02-23T01:25:42.192Z,3.84
2019-02-23T01:28:10.819Z,3.82
2019-02-23T01:30:39.213Z,3.82
2019-02-23T01:33:07.839Z,3.89
2019-02-23T01:35:35.772Z,3.80
2019-02-23T01:38:04.448Z,3.81
2019-02-23T01:40:32.448Z,3.80
2019-02-23T01:43:00.453Z,3.72
2019-02-23T01:45:28.432Z,3.73
2019-02-23T01:47:56.971Z,3.78
2019-02-23T01:50:25.447Z,3.70
2019-02-23T01:52:53.428Z,3.80
2019-02-23T01:55:21.886Z,3.74
2019-02-23T01:57:50.085Z,3.74
2019-02-23T02:00:19.121Z,3.69
2019-02-23T02:02:48.130Z,3.70
2019-02-23T02:05:16.403Z,3.69
2019-02-23T02:07:44.665Z,3.71
2019-02-23T02:10:13.567Z,3.65
2019-02-23T02:12:42.479Z,3.65
2019-02-23T02:15:13.163Z,3.52
2019-02-23T02:17:41.765Z,3.34
2019-02-23T02:20:11.338Z,3.32
2019-02-23T02:22:39.781Z,3.20
2019-02-23T02:25:08.317Z,3.20
2019-02-23T02:27:36.967Z,3.22
2019-02-23T02:30:14.065Z,3.02
2019-02-23T02:32:42.129Z,2.95
2019-02-23T02:35:10.718Z,2.93
2019-02-23T02:37:38.767Z,2.88
2019-02-23T02:40:07.868Z,2.90
2019-02-23T02:42:36.725Z,2.85
2019-02-23T02:45:06.345Z,2.78
2019-02-23T02:47:34.451Z,2.68
2019-02-23T02:50:02.987Z,2.69
2019-02-23T02:52:30.929Z,2.66
2019-02-23T02:54:59.703Z,2.51
2019-02-23T02:57:28.028Z,2.51
2019-02-23T02:59:56.687Z,2.52
2019-02-23T03:02:24.724Z,2.45
2019-02-23T03:04:53.472Z,2.45
2019-02-23T03:07:22.787Z,2.54
2019-02-23T03:09:50.810Z,2.52
2019-02-23T03:12:19.611Z,2.56
2019-02-23T03:14:47.675Z,2.57
2019-02-23T03:17:16.082Z,2.68
2019-02-23T03:19:44.153Z,2.73
2019-02-23T03:22:15.954Z,2.60
2019-02-23T03:24:44.547Z,2.43
2019-02-23T03:27:13.185Z,2.40
2019-02-23T03:29:41.460Z,2.31
2019-02-23T03:32:12.359Z,2.29
2019-02-23T03:34:40.760Z,2.21
2019-02-23T03:37:09.480Z,2.16
2019-02-23T03:39:38.354Z,2.03
2019-02-23T03:42:06.640Z,2.10
2019-02-23T03:44:34.612Z,2.02
2019-02-23T03:47:02.918Z,1.87
2019-02-23T03:49:31.143Z,1.83
2019-02-23T03:51:59.148Z,1.77
2019-02-23T03:54:27.758Z,1.77
2019-02-23T03:56:57.328Z,1.59
2019-02-23T03:59:25.779Z,1.44
2019-02-23T04:01:54.347Z,1.39
2019-02-23T04:04:22.777Z,1.41
2019-02-23T04:06:51.431Z,1.38
2019-02-23T04:09:19.403Z,1.41
2019-02-23T04:11:48.078Z,1.25
2019-02-23T04:14:16.852Z,1.47
2019-02-23T04:16:45.212Z,1.19
2019-02-23T04:19:13.489Z,1.21
2019-02-23T04:21:41.966Z,1.15
2019-02-23T04:24:10.301Z,1.29
2019-02-23T04:26:38.226Z,1.21
2019-02-23T04:29:06.384Z,1.23
2019-02-23T04:31:34.766Z,1.33
2019-02-23T04:34:03.302Z,1.20
2019-02-23T04:36:32.279Z,1.35
2019-02-23T04:39:00.538Z,1.15
2019-02-23T04:41:29.244Z,1.08
2019-02-23T04:43:57.589Z,1.13
2019-02-23T04:46:25.590Z,1.06
2019-02-23T04:48:53.584Z,1.09
2019-02-23T04:51:21.846Z,1.03
2019-02-23T04:53:49.762Z,1.04
2019-02-23T04:56:18.086Z,0.95
2019-02-23T04:58:46.257Z,1.00
2019-02-23T05:01:14.880Z,1.01
2019-02-23T05:03:43.294Z,0.90
2019-02-23T05:06:11.392Z,0.93
2019-02-23T05:08:39.732Z,0.93
2019-02-23T05:11:08.044Z,0.83
2019-02-23T05:13:38.500Z,0.91
2019-02-23T05:16:10.018Z,0.83
2019-02-23T05:18:38.662Z,0.78
2019-02-23T05:21:07.155Z,0.87
2019-02-23T05:23:36.444Z,0.78
2019-02-23T05:26:04.641Z,0.75
2019-02-23T05:28:32.989Z,0.67
2019-02-23T05:31:01.325Z,0.70
2019-02-23T05:33:29.562Z,0.69
2019-02-23T05:35:57.605Z,0.61
2019-02-23T05:38:25.383Z,0.58
2019-02-23T05:40:53.953Z,0.39
2019-02-23T05:43:22.094Z,0.31
2019-02-23T05:45:53.057Z,0.32
2019-02-23T05:48:21.306Z,0.32
2019-02-23T05:50:49.547Z,0.24
2019-02-23T05:53:17.816Z,0.14
2019-02-23T05:55:45.816Z,0.12
2019-02-23T05:58:14.412Z,0.19
2019-02-23T06:00:53.021Z,0.17
2019-02-23T06:03:22.107Z,0.05
2019-02-23T06:05:51.984Z,0.01
2019-02-23T06:08:22.338Z,-0.07
2019-02-23T06:10:52.215Z,-0.12
2019-02-23T06:13:21.849Z,-0.10
2019-02-23T06:15:50.879Z,-0.10
2019-02-23T06:18:19.126Z,-0.13
2019-02-23T06:20:50.868Z,-0.16
2019-02-23T06:23:19.052Z,-0.01
2019-02-23T06:26:03.869Z,0.00
2019-02-23T06:28:31.499Z,-0.23
2019-02-23T06:30:59.142Z,-0.30
2019-02-23T06:33:27.432Z,-0.26
2019-02-23T06:35:55.359Z,-0.34
2019-02-23T06:38:23.148Z,-0.30
2019-02-23T06:40:50.576Z,-0.37
2019-02-23T06:43:18.706Z,-0.32
2019-02-23T06:45:48.203Z,-0.17
2019-02-23T06:48:16.199Z,-0.07
2019-02-23T06:50:43.898Z,-0.05
2019-02-23T06:53:11.597Z,-0.02
2019-02-23T06:55:39.633Z,0.08
2019-02-23T06:58:08.016Z,0.14
2019-02-23T07:00:35.988Z,0.21
2019-02-23T07:03:07.791Z,0.27
2019-02-23T07:05:34.963Z,0.30
2019-02-23T07:08:02.173Z,0.33
2019-02-23T07:10:29.815Z,0.39
2019-02-23T07:12:57.367Z,0.43
2019-02-23T07:15:24.979Z,0.52
2019-02-23T07:17:52.485Z,0.59
2019-02-23T07:20:21.946Z,0.63
2019-02-23T07:22:49.080Z,0.76
2019-02-23T07:25:16.777Z,0.85
2019-02-23T07:27:45.105Z,0.93
2019-02-23T07:30:12.663Z,0.98
2019-02-23T07:32:40.998Z,1.14
2019-02-23T07:35:08.986Z,1.30
2019-02-23T07:37:36.712Z,1.51
2019-02-23T07:40:04.718Z,1.71
2019-02-23T07:42:32.764Z,1.85
2019-02-23T07:45:00.325Z,1.96
2019-02-23T07:47:28.069Z,2.13
2019-02-23T07:49:56.296Z,2.43
2019-02-23T07:52:26.627Z,2.69
2019-02-23T07:54:53.727Z,2.93
2019-02-23T07:57:21.668Z,2.97
2019-02-23T07:59:49.214Z,3.47
2019-02-23T08:02:16.810Z,3.78
2019-02-23T08:04:44.086Z,4.08
2019-02-23T08:07:11.858Z,4.06
2019-02-23T08:09:39.398Z,4.36
2019-02-23T08:12:07.187Z,4.57
2019-02-23T08:14:34.704Z,4.73
2019-02-23T08:17:02.557Z,4.97
2019-02-23T08:19:30.287Z,4.92
2019-02-23T08:21:57.976Z,5.03
2019-02-23T08:24:25.256Z,5.29
2019-02-23T08:26:52.865Z,5.51
2019-02-23T08:29:20.390Z,5.70
2019-02-23T08:31:47.692Z,5.84
2019-02-23T08:34:15.497Z,5.92
2019-02-23T08:36:42.815Z,6.01
2019-02-23T08:39:10.100Z,6.04
2019-02-23T08:41:38.279Z,6.16
2019-02-23T08:44:05.980Z,6.36
2019-02-23T08:46:33.774Z,6.33
2019-02-23T08:49:01.199Z,6.44
2019-02-23T08:51:28.321Z,6.58
2019-02-23T08:53:55.760Z,6.63
2019-02-23T08:56:23.698Z,6.68
2019-02-23T08:58:51.102Z,6.83
2019-02-23T09:01:18.828Z,6.99
2019-02-23T09:03:46.592Z,7.29
2019-02-23T09:06:14.154Z,7.52
2019-02-23T09:08:41.569Z,7.50
2019-02-23T09:11:09.215Z,7.59
2019-02-23T09:13:36.623Z,7.71
2019-02-23T09:16:04.163Z,7.61
2019-02-23T09:18:31.765Z,7.71
2019-02-23T09:20:59.637Z,7.71
2019-02-23T09:23:27.711Z,7.90
2019-02-23T09:25:57.813Z,7.91
2019-02-23T09:28:25.400Z,7.93
2019-02-23T09:30:52.706Z,8.00
2019-02-23T09:33:20.369Z,8.00
2019-02-23T09:35:47.660Z,8.20
2019-02-23T09:38:14.788Z,8.39
2019-02-23T09:40:42.708Z,8.51
2019-02-23T09:43:10.565Z,8.55
2019-02-23T09:45:37.805Z,8.79
2019-02-23T09:48:05.403Z,8.97
2019-02-23T09:50:32.651Z,9.14
2019-02-23T09:53:10.450Z,9.52
2019-02-23T09:55:30.259Z,9.68
2019-02-23T09:57:58.054Z,9.92
2019-02-23T10:00:25.977Z,9.94
2019-02-23T10:02:53.533Z,9.77
2019-02-23T10:05:20.810Z,9.79
2019-02-23T10:07:48.238Z,9.68
2019-02-23T10:10:16.232Z,9.52
2019-02-23T10:12:43.744Z,9.76
2019-02-23T10:15:12.810Z,10.06
2019-02-23T10:17:40.076Z,10.30
2019-02-23T10:20:08.074Z,10.25
2019-02-23T10:22:35.658Z,10.35
2019-02-23T10:25:03.503Z,10.45
2019-02-23T10:27:30.730Z,10.71
2019-02-23T10:29:58.673Z,10.57
2019-02-23T10:32:26.641Z,10.84
2019-02-23T10:34:54.647Z,10.73
2019-02-23T10:37:22.480Z,11.10
2019-02-23T10:39:49.983Z,11.06
2019-02-23T10:42:17.923Z,11.41
2019-02-23T10:44:46.406Z,11.59
2019-02-23T10:47:14.732Z,11.82
2019-02-23T10:49:42.127Z,11.95
2019-02-23T10:52:09.899Z,12.16
2019-02-23T10:54:37.683Z,12.31
2019-02-23T10:57:05.193Z,12.60
2019-02-23T10:59:32.930Z,12.76
2019-02-23T11:02:01.149Z,12.86
2019-02-23T11:04:33.056Z,13.19
2019-02-23T11:07:01.481Z,13.19
2019-02-23T11:09:35.080Z,13.30
2019-02-23T11:12:05.124Z,13.43
2019-02-23T11:14:32.528Z,13.81
2019-02-23T11:17:00.531Z,13.81
2019-02-23T11:19:28.822Z,14.02
2019-02-23T11:21:56.593Z,13.83
2019-02-23T11:24:24.167Z,13.81
2019-02-23T11:26:52.247Z,14.07
2019-02-23T11:29:20.901Z,14.03
2019-02-23T11:31:48.741Z,14.06
2019-02-23T11:34:16.469Z,14.16
2019-02-23T11:36:43.835Z,14.19
2019-02-23T11:39:11.649Z,14.02
2019-02-23T11:41:39.326Z,13.96
2019-02-23T11:44:07.064Z,14.35
2019-02-23T11:46:34.872Z,14.13
2019-02-23T11:49:02.171Z,14.23
2019-02-23T11:51:29.547Z,14.14
2019-02-23T11:53:57.155Z,14.23
2019-02-23T11:56:24.674Z,13.96
2019-02-23T11:58:52.166Z,14.04
2019-02-23T12:01:19.638Z,13.81
2019-02-23T12:03:47.257Z,13.87
2019-02-23T12:06:14.792Z,13.46
2019-02-23T12:08:42.437Z,13.77
2019-02-23T12:11:10.471Z,13.97
2019-02-23T12:13:37.941Z,13.77
2019-02-23T12:16:05.761Z,13.61
2019-02-23T12:18:33.353Z,13.61
2019-02-23T12:21:01.459Z,13.28
2019-02-23T12:23:29.328Z,13.50
2019-02-23T12:25:57.439Z,13.55
2019-02-23T12:28:24.985Z,13.18
2019-02-23T12:30:52.640Z,13.09
2019-02-23T12:33:19.840Z,12.87
2019-02-23T12:35:47.332Z,12.84
2019-02-23T12:38:17.802Z,12.70
2019-02-23T12:40:45.464Z,12.64
2019-02-23T12:43:12.587Z,12.43
2019-02-23T12:45:40.035Z,12.51
2019-02-23T12:48:07.392Z,12.35
2019-02-23T12:50:34.669Z,12.40
2019-02-23T12:53:02.254Z,12.37
2019-02-23T12:55:29.833Z,12.19
2019-02-23T12:57:57.722Z,12.20
2019-02-23T13:00:25.139Z,11.93
2019-02-23T13:02:52.434Z,12.11
2019-02-23T13:05:20.258Z,12.00
2019-02-23T13:07:48.652Z,12.11
2019-02-23T13:10:16.265Z,12.06
2019-02-23T13:13:48.126Z,12.03
2019-02-23T13:17:00.893Z,12.11
2019-02-23T13:20:11.976Z,11.87
2019-02-23T13:23:22.882Z,11.79
2019-02-23T13:26:49.248Z,11.45
2019-02-23T13:30:09.035Z,11.66
2019-02-23T13:33:28.453Z,11.61
2019-02-23T13:37:15.235Z,11.45
2019-02-23T13:41:09.181Z,11.50
2019-02-23T13:44:22.956Z,11.36
2019-02-23T13:47:34.369Z,11.48
2019-02-23T13:50:43.703Z,11.35
2019-02-23T13:54:06.011Z,11.35
2019-02-23T13:57:11.931Z,11.25
2019-02-23T14:00:16.332Z,11.32
2019-02-23T14:03:45.578Z,11.32
2019-02-23T14:06:52.404Z,11.37
2019-02-23T14:10:17.806Z,11.21
2019-02-23T14:13:35.968Z,11.05
2019-02-23T14:16:52.522Z,11.10
2019-02-23T14:19:58.295Z,11.04
2019-02-23T14:23:17.198Z,10.84
2019-02-23T14:26:18.377Z,10.83
2019-02-23T14:29:53.444Z,10.84
2019-02-23T14:33:08.080Z,10.74
2019-02-23T14:36:21.649Z,10.65
2019-02-23T14:39:40.686Z,10.53
2019-02-23T14:42:59.826Z,10.45
2019-02-23T14:46:09.970Z,10.47
2019-02-23T14:49:23.783Z,10.47
2019-02-23T14:52:54.473Z,10.49
2019-02-23T14:55:46.113Z,10.54
2019-02-23T14:58:49.872Z,10.64
2019-02-23T15:02:14.554Z,10.48
2019-02-23T15:05:25.078Z,10.42
2019-02-23T15:08:39.430Z,10.45
2019-02-23T15:12:01.312Z,10.43
2019-02-23T15:15:03.298Z,10.34
2019-02-23T15:18:39.744Z,10.38
2019-02-23T15:21:24.674Z,10.22
2019-02-23T15:25:12.779Z,10.12
2019-02-23T15:28:47.967Z,10.04
2019-02-23T15:32:24.136Z,10.02
2019-02-23T15:35:25.654Z,10.03
2019-02-23T15:38:16.363Z,9.84
2019-02-23T15:41:05.356Z,9.62
2019-02-23T15:44:05.723Z,9.57
2019-02-23T15:47:16.743Z,9.45
2019-02-23T15:49:43.907Z,9.52
2019-02-23T15:52:11.348Z,9.37
2019-02-23T15:54:39.081Z,9.26
2019-02-23T15:57:06.638Z,9.21
2019-02-23T15:59:37.610Z,9.13
2019-02-23T16:02:05.519Z,9.14
2019-02-23T16:04:33.198Z,9.01
2019-02-23T16:07:01.506Z,8.97
2019-02-23T16:09:29.586Z,8.82
2019-02-23T16:11:57.008Z,8.90
2019-02-23T16:14:24.704Z,8.68
2019-02-23T16:16:52.333Z,8.68
2019-02-23T16:19:20.246Z,8.75
2019-02-23T16:21:48.222Z,8.60
2019-02-23T16:24:16.058Z,8.46
2019-02-23T16:26:44.137Z,8.31
2019-02-23T16:29:11.802Z,8.11
2019-02-23T16:31:39.658Z,8.13
2019-02-23T16:34:09.136Z,7.92
2019-02-23T16:36:36.632Z,7.88
2019-02-23T16:39:09.867Z,7.74
2019-02-23T16:41:37.860Z,7.75
2019-02-23T16:44:05.865Z,7.66
2019-02-23T16:46:34.419Z,7.57
2019-02-23T16:49:02.504Z,7.55
2019-02-23T16:51:30.333Z,7.38
2019-02-23T16:53:58.504Z,7.38
2019-02-23T16:56:25.885Z,7.35
2019-02-23T16:58:54.186Z,7.20
2019-02-23T17:01:21.774Z,7.08
2019-02-23T17:03:49.735Z,7.06
2019-02-23T17:06:17.767Z,6.89
2019-02-23T17:08:45.377Z,6.88
2019-02-23T17:11:12.801Z,6.91
2019-02-23T17:13:40.103Z,6.80
2019-02-23T17:16:07.353Z,6.59
2019-02-23T17:18:35.905Z,6.53
2019-02-23T17:21:03.551Z,6.46
2019-02-23T17:23:31.184Z,6.51
2019-02-23T17:26:04.134Z,6.39
2019-02-23T17:28:28.984Z,6.52
2019-02-23T17:30:56.816Z,6.10
2019-02-23T17:33:27.791Z,6.31
2019-02-23T17:35:53.878Z,6.24
2019-02-23T17:38:21.556Z,6.02
2019-02-23T17:40:49.417Z,5.96
2019-02-23T17:43:16.715Z,5.94
2019-02-23T17:45:45.104Z,5.92
2019-02-23T17:48:13.069Z,5.97
2019-02-23T17:50:40.317Z,5.70
2019-02-23T17:53:08.506Z,5.53
2019-02-23T17:55:36.115Z,5.61
2019-02-23T17:58:03.489Z,5.56
2019-02-23T18:00:30.848Z,5.25
2019-02-23T18:02:58.435Z,5.20
2019-02-23T18:05:26.619Z,5.45
2019-02-23T18:07:54.443Z,5.20
2019-02-23T18:10:22.237Z,5.30
2019-02-23T18:12:53.249Z,4.98
2019-02-23T18:15:26.319Z,5.04
2019-02-23T18:17:54.092Z,4.99
2019-02-23T18:20:22.148Z,5.14
2019-02-23T18:22:51.026Z,4.96
2019-02-23T18:25:21.450Z,5.00
2019-02-23T18:27:59.136Z,4.88
2019-02-23T18:30:31.267Z,4.93
2019-02-23T18:33:01.694Z,4.75
2019-02-23T18:35:29.300Z,4.58
2019-02-23T18:37:57.177Z,4.46
2019-02-23T18:40:25.911Z,4.33
2019-02-23T18:42:54.041Z,4.31
2019-02-23T18:45:21.561Z,4.31
2019-02-23T18:47:49.078Z,4.03
2019-02-23T18:50:22.149Z,4.05
2019-02-23T18:52:49.703Z,4.04
2019-02-23T18:55:20.782Z,3.94
2019-02-23T18:57:48.537Z,4.07
2019-02-23T19:00:24.001Z,4.00
2019-02-23T19:02:45.188Z,3.90
2019-02-23T19:05:12.645Z,3.75
2019-02-23T19:07:40.025Z,3.71
2019-02-23T19:10:09.915Z,3.72
2019-02-23T19:12:37.704Z,3.56
2019-02-23T19:15:07.040Z,3.54
2019-02-23T19:17:34.182Z,3.50
2019-02-23T19:20:01.595Z,3.56
2019-02-23T19:22:29.269Z,3.53
2019-02-23T19:24:56.825Z,3.44
2019-02-23T19:27:24.492Z,3.33
2019-02-23T19:29:52.237Z,3.36
2019-02-23T19:32:19.831Z,3.36
2019-02-23T19:34:47.240Z,3.34
2019-02-23T19:37:14.665Z,3.35
2019-02-23T19:39:42.246Z,3.39
2019-02-23T19:42:10.055Z,3.40
2019-02-23T19:44:37.496Z,3.30
2019-02-23T19:47:15.813Z,3.15
2019-02-23T19:49:43.215Z,3.22
2019-02-23T19:52:13.153Z,3.24
2019-02-23T19:54:40.817Z,3.12
2019-02-23T19:57:08.249Z,3.06
2019-02-23T19:59:35.810Z,3.02
2019-02-23T20:02:03.636Z,2.87
2019-02-23T20:04:31.515Z,2.90
2019-02-23T20:06:59.398Z,2.88
2019-02-23T20:09:27.381Z,2.71
2019-02-23T20:11:55.040Z,2.73
2019-02-23T20:14:22.890Z,2.98
2019-02-23T20:16:50.480Z,2.93
2019-02-23T20:19:19.697Z,2.90
2019-02-23T20:21:47.673Z,2.64
2019-02-23T20:24:15.544Z,2.60
2019-02-23T20:26:43.373Z,2.59
2019-02-23T20:29:11.649Z,2.50
2019-02-23T20:31:39.220Z,2.61
2019-02-23T20:34:06.767Z,2.66
2019-02-23T20:36:34.741Z,2.54
2019-02-23T20:39:03.054Z,2.42
2019-02-23T20:41:30.957Z,2.36
2019-02-23T20:43:59.079Z,2.26
2019-02-23T20:46:26.624Z,2.32
2019-02-23T20:48:53.815Z,2.35
2019-02-23T20:51:21.774Z,2.34
2019-02-23T20:53:49.736Z,2.41
2019-02-23T20:56:17.198Z,2.50
2019-02-23T20:58:44.324Z,2.50
2019-02-23T21:01:12.462Z,2.29
2019-02-23T21:03:40.464Z,2.32
2019-02-23T21:06:07.729Z,2.10
2019-02-23T21:08:35.918Z,2.17
2019-02-23T21:11:03.514Z,2.09
2019-02-23T21:13:31.224Z,2.08
2019-02-23T21:15:58.529Z,1.98
2019-02-23T21:18:26.130Z,1.91
2019-02-23T21:20:53.269Z,1.87
2019-02-23T21:23:21.376Z,1.91
2019-02-23T21:25:48.901Z,1.91
2019-02-23T21:28:16.264Z,1.98
2019-02-23T21:30:43.636Z,1.70
2019-02-23T21:33:11.213Z,1.54
2019-02-23T21:35:38.919Z,1.69
2019-02-23T21:38:06.561Z,1.68
2019-02-23T21:40:33.722Z,1.80
2019-02-23T21:43:01.255Z,1.59
2019-02-23T21:45:30.198Z,1.75
2019-02-23T21:47:57.814Z,1.55
2019-02-23T21:50:25.302Z,1.49
2019-02-23T21:52:52.623Z,1.54
2019-02-23T21:55:20.422Z,1.62
2019-02-23T21:57:47.619Z,1.41
2019-02-23T22:00:15.118Z,1.58
2019-02-23T22:02:42.841Z,1.64
2019-02-23T22:05:12.680Z,1.38
2019-02-23T22:07:40.345Z,1.36
2019-02-23T22:10:08.181Z,1.30
2019-02-23T22:12:35.845Z,1.25
2019-02-23T22:15:03.560Z,1.19
2019-02-23T22:17:30.984Z,1.29
2019-02-23T22:19:58.593Z,1.28
2019-02-23T22:22:26.922Z,1.20
2019-02-23T22:24:54.154Z,1.08
2019-02-23T22:27:31.160Z,1.12
2019-02-23T22:29:54.105Z,1.10
2019-02-23T22:32:21.345Z,1.14
2019-02-23T22:34:48.477Z,1.08
2019-02-23T22:37:15.984Z,1.06
2019-02-23T22:39:43.219Z,0.98
2019-02-23T22:42:10.514Z,0.98
2019-02-23T22:44:38.158Z,0.96
2019-02-23T22:47:05.817Z,0.90
2019-02-23T22:49:33.175Z,0.84
2019-02-23T22:52:01.430Z,0.84
2019-02-23T22:54:28.895Z,0.79
2019-02-23T22:56:56.062Z,0.74
2019-02-23T22:59:23.670Z,0.74
2019-02-23T23:01:51.446Z,0.69
2019-02-23T23:04:19.013Z,0.74
2019-02-23T23:06:46.631Z,0.70
2019-02-23T23:09:17.456Z,0.71
2019-02-23T23:11:45.230Z,0.58
2019-02-23T23:14:13.121Z,0.52
2019-02-23T23:16:40.904Z,0.47
2019-02-23T23:19:08.637Z,0.45
2019-02-23T23:21:36.160Z,0.46
2019-02-23T23:24:03.537Z,0.47
2019-02-23T23:26:31.167Z,0.35
2019-02-23T23:28:58.777Z,0.29
2019-02-23T23:31:26.626Z,0.22
2019-02-23T23:33:54.888Z,0.32
2019-02-23T23:36:22.503Z,0.31
2019-02-23T23:38:50.207Z,0.37
2019-02-23T23:41:18.525Z,0.26
2019-02-23T23:43:46.984Z,0.14
2019-02-23T23:46:14.642Z,0.20
2019-02-23T23:48:42.479Z,0.03
2019-02-23T23:51:09.755Z,0.11
2019-02-23T23:53:37.694Z,0.18
2019-02-23T23:56:04.991Z,0.14
2019-02-23T23:58:33.248Z,-0.09
